createdAt,value
2022-09-13T00:10:44.185Z,10.69
2022-09-13T00:20:51.655Z,10.47
2022-09-13T00:31:01.173Z,10.33
2022-09-13T00:41:10.145Z,10.25
2022-09-13T00:51:17.889Z,10.13
2022-09-13T01:01:27.374Z,9.94
2022-09-13T01:11:38.143Z,9.84
2022-09-13T01:22:20.374Z,9.75
2022-09-13T01:32:25.921Z,9.66
2022-09-13T01:42:39.145Z,9.67
2022-09-13T01:52:44.472Z,9.66
2022-09-13T02:02:53.807Z,9.66
2022-09-13T02:13:01.015Z,9.76
2022-09-13T02:23:13.559Z,9.71
2022-09-13T02:33:25.472Z,9.65
2022-09-13T02:43:31.625Z,9.58
2022-09-13T02:53:37.091Z,9.46
2022-09-13T03:03:44.155Z,9.36
2022-09-13T03:13:56.915Z,9.13
2022-09-13T03:24:09.353Z,8.95
2022-09-13T03:34:25.200Z,8.85
2022-09-13T03:44:35.434Z,8.74
2022-09-13T03:54:42.667Z,8.66
2022-09-13T04:04:50.333Z,8.61
2022-09-13T04:14:57.891Z,8.48
2022-09-13T04:25:03.856Z,8.39
2022-09-13T04:35:10.613Z,8.40
2022-09-13T04:45:18.176Z,8.34
2022-09-13T04:55:25.144Z,8.35
2022-09-13T05:05:33.421Z,8.37
2022-09-13T05:15:40.714Z,8.65
2022-09-13T05:25:47.376Z,9.60
2022-09-13T05:35:54.677Z,11.21
2022-09-13T05:46:02.301Z,12.40
2022-09-13T05:56:15.876Z,13.12
2022-09-13T06:06:24.561Z,14.09
2022-09-13T06:16:31.941Z,15.69
2022-09-13T06:26:39.180Z,16.56
2022-09-13T06:46:53.280Z,17.25
2022-09-13T06:57:03.212Z,17.16
2022-09-13T07:07:10.464Z,16.49
2022-09-13T07:17:18.272Z,17.12
2022-09-13T07:27:25.778Z,17.31
2022-09-13T07:37:33.011Z,17.21
2022-09-13T07:47:40.362Z,16.80
2022-09-13T07:57:47.601Z,16.95
2022-09-13T08:07:54.793Z,18.10
2022-09-13T08:18:02.363Z,18.68
2022-09-13T08:28:09.378Z,19.57
2022-09-13T08:38:16.580Z,19.63
2022-09-13T08:48:31.692Z,19.97
2022-09-13T08:58:49.933Z,20.35
2022-09-13T09:08:59.995Z,20.31
2022-09-13T09:19:07.390Z,20.62
2022-09-13T09:29:20.745Z,20.84
2022-09-13T09:39:39.286Z,20.47
2022-09-13T09:50:04.820Z,20.61
2022-09-13T10:00:14.700Z,20.80
2022-09-13T10:10:24.602Z,21.13
2022-09-13T10:20:33.090Z,21.05
2022-09-13T10:30:43.652Z,21.07
2022-09-13T10:40:50.821Z,21.18
2022-09-13T10:51:03.725Z,21.41
2022-09-13T11:01:40.296Z,21.75
2022-09-13T11:11:49.502Z,21.88
2022-09-13T11:21:58.987Z,21.93
2022-09-13T11:32:07.413Z,21.63
2022-09-13T11:42:18.158Z,21.43
2022-09-13T11:52:26.585Z,21.14
2022-09-13T12:02:38.720Z,20.85
2022-09-13T12:12:48.440Z,20.70
2022-09-13T12:33:07.261Z,21.16
2022-09-13T12:43:32.520Z,21.21
2022-09-13T12:54:13.856Z,21.37
2022-09-13T13:04:18.920Z,21.21
2022-09-13T13:14:44.577Z,21.18
2022-09-13T13:24:51.788Z,21.31
2022-09-13T13:35:18.878Z,21.45
2022-09-13T13:45:26.090Z,21.46
2022-09-13T13:55:31.759Z,21.36
2022-09-13T14:05:37.634Z,21.16
2022-09-13T14:15:51.320Z,20.94
2022-09-13T14:25:56.563Z,20.75
2022-09-13T14:36:05.116Z,20.42
2022-09-13T14:46:16.762Z,20.17
2022-09-13T14:56:22.225Z,19.91
2022-09-13T15:06:31.746Z,19.73
2022-09-13T15:16:48.754Z,19.44
2022-09-13T15:27:03.464Z,19.26
2022-09-13T15:37:09.316Z,19.20
2022-09-13T15:47:16.988Z,19.14
2022-09-13T15:57:22.461Z,19.04
2022-09-13T16:07:30.101Z,18.98
2022-09-13T16:17:36.278Z,18.95
2022-09-13T16:27:45.028Z,18.80
2022-09-13T16:37:52.868Z,18.65
2022-09-13T16:48:00.674Z,18.50
2022-09-13T16:58:08.170Z,18.31
2022-09-13T17:08:14.869Z,18.19
2022-09-13T17:18:22.152Z,18.08
2022-09-13T17:28:29.344Z,17.93
2022-09-13T17:38:36.651Z,17.81
2022-09-13T17:48:44.944Z,17.73
2022-09-13T17:58:50.088Z,17.69
2022-09-13T18:08:58.505Z,17.61
2022-09-13T18:19:06.010Z,17.60
2022-09-13T18:29:13.902Z,17.60
2022-09-13T18:39:21.668Z,17.57
2022-09-13T18:49:29.002Z,17.49
2022-09-13T18:59:36.276Z,17.43
2022-09-13T19:09:43.588Z,17.47
2022-09-13T19:19:51.383Z,17.50
2022-09-13T19:29:59.391Z,17.43
2022-09-13T19:40:06.352Z,17.39
2022-09-13T19:50:13.049Z,17.40
2022-09-13T20:00:19.914Z,17.41
2022-09-13T20:10:27.167Z,17.35
2022-09-13T20:20:37.493Z,17.30
2022-09-13T20:30:53.239Z,17.30
2022-09-13T20:41:03.673Z,17.31
2022-09-13T20:51:12.967Z,17.22
2022-09-13T21:01:22.817Z,17.10
2022-09-13T21:11:34.113Z,17.06
2022-09-13T21:21:43.648Z,17.00
2022-09-13T21:31:51.290Z,16.88
2022-09-13T21:41:58.542Z,16.71
2022-09-13T21:52:03.455Z,16.67
2022-09-13T22:02:11.885Z,16.71
2022-09-13T22:12:19.130Z,16.67
2022-09-13T22:22:26.325Z,16.52
2022-09-13T22:32:33.689Z,16.35
2022-09-13T22:42:40.894Z,16.25
2022-09-13T22:52:48.314Z,16.17
2022-09-13T23:02:56.244Z,16.06
2022-09-13T23:13:03.498Z,15.88
2022-09-13T23:23:10.987Z,15.71
2022-09-13T23:33:18.495Z,15.61
2022-09-13T23:43:26.566Z,15.58
2022-09-13T23:53:34.203Z,15.54
